Tohlakai, New Mexico
Current Conditions -  °F | °C
As of 8:53 PM on Sunday 23 Nov 2014 (Local Time) from KGUP Reporting Station
Clear Clear  
Wind Chill: 19°   Ceiling: Unl
Heat Index: 19°   Visibility: 10mi
Dew Point:   Wind: 0mph
Humidity: 43%   Direction: NA
Pressure: 30.14"   Gusts: NA
Location:  35.4315°N, 108.724°W
Report Text: KGUP 240353Z AUTO 00000KT 10SM CLR M07/M18 A3014 RMK AO2 SLP245 T10721178
Loading
Personal Weather Stations






























Interactive Weather Map New forecast layout! Learn more

10-Day Weather Forecast

Advertisements
Track Severe Weather on mobile